Ardrishaig, United Kingdom
Current Conditions -  °F | °C
As of 11:20 PM on Saturday 25 Oct 2014 (Local Time) from EGPI Reporting Station
Broken Clouds Broken Clouds  
Wind Chill: 52°   Ceiling: 4000
Heat Index: 52°   Visibility: 6mi
Dew Point: 48°   Wind: 24mph
Humidity: 88%   Direction: 210°SSW
Pressure: 29.68"   Gusts: NA
Location:  56.02°N, 5.45°W
Report Text: EGPI 252220Z AUTO 21021KT 180V240 9999 FEW028/// BKN040/// 11/09 Q1005 RERA
Loading
Personal Weather Stations






























Interactive Weather Map
Tropical Storm Tracking
New forecast layout! Learn more

10-Day Weather Forecast

Advertisements
Track Severe Weather on mobile